• Join FlightAware (Why Join?)
  • Login
  • US Flag 
02:51PM EDT


 

Airport Tracker/Info


-or-


 

Live Flight TrackerFlight Track Log ✈ EJA221 ✈ 19-Jul-2013 ✈ KASE - KSFM

Flight Track Log - Related Links

Times and Time Zones

All times are in EDT time to prevent confusion due to time zone crossing. See the EJA221 flight status page for this flight to view local times or setup timezone preferences in your user account.

Time Position Orientation Groundspeed Altitude Reporting Facility
EDT Latitude Longitude Course Direction KTS MPH feet Rate Location/Type
12:27PM 39.2561 -106.8764 312° West 192 221 41,000  Level Denver Center
12:28PM 39.2886 -106.9233 312° West 202 232 10,400 -13,620 Descending Denver Center
12:29PM 39.3039 -107.0069 283° West 233 268 12,900 2,040 Climbing Denver Center
12:30PM 39.3494 -107.0678 314° West 257 296 14,700 1,740 Climbing Denver Center
12:31PM 39.4419 -107.0569 North 289 333 16,600 1,440 Climbing Denver Center
12:32PM 39.5272 -107.0278 15° North 321 369 17,700 1,200 Climbing Denver Center
12:33PM 39.6406 -106.9878 15° North 368 423 19,200 1,380 Climbing Denver Center
12:34PM 39.7531 -106.9558 12° North 405 466 20,600 1,260 Climbing Denver Center
12:35PM 39.8669 -106.9219 13° North 416 479 21,900 1,260 Climbing Denver Center
12:36PM 39.9736 -106.8561 25° Northeast 434 499 23,300 1,320 Climbing Denver Center
12:37PM 40.0189 -106.6947 70° East 436 502 24,700 1,200 Climbing Denver Center
12:38PM 40.0081 -106.5383 95° East 450 518 25,800 1,140 Climbing Denver Center
12:39PM 40.0006 -106.3719 93° East 456 525 27,100 1,200 Climbing Denver Center
12:40PM 39.9906 -106.2014 94° East 469 540 28,400 1,200 Climbing Denver Center
12:41PM 39.9814 -106.0272 94° East 479 551 29,700 1,620 Climbing Denver Center
12:42PM 39.9711 -105.8161 94° East 488 562 31,800 1,800 Climbing Denver Center
12:43PM 39.9594 -105.6400 95° East 480 552 33,500 1,560 Climbing Denver Center
12:44PM 39.9483 -105.4658 95° East 479 551 35,100 1,380 Climbing Denver Center
12:45PM 39.9386 -105.2933 94° East 476 548 36,400 1,320 Climbing Denver Center
12:46PM 39.9275 -105.1225 95° East 471 542 37,900 1,380 Climbing Denver Center
12:47PM 39.9164 -104.9511 95° East 471 542 39,300 1,200 Climbing Denver Center
12:48PM 39.9036 -104.7472 95° East 467 537 40,500 780 Climbing Denver Center
12:49PM 39.8881 -104.5725 97° East 505 581 41,000 240 Climbing Denver Center
12:50PM 39.8592 -104.3997 102° East 474 545 41,000  Level Denver Center
12:51PM 39.8311 -104.2289 102° East 476 548 41,000  Level Denver Center
12:53PM 39.8017 -104.0514 102° East 490 564 41,000  Level Denver Center
12:54PM 39.7728 -103.8819 102° East 484 557 41,000  Level Denver Center
12:55PM 39.7458 -103.7150 102° East 458 527 41,000  Level Denver Center
12:56PM 39.7169 -103.5439 102° East 481 554 41,000  Level Denver Center
12:57PM 39.6822 -103.3428 103° East 477 549 41,000  Level Denver Center
12:58PM 39.6533 -103.1756 103° East 476 548 41,000  Level Denver Center
12:59PM 39.6247 -103.0078 102° East 476 548 41,000  Level Denver Center
01:00PM 39.5947 -102.8400 103° East 478 550 41,000  Level Denver Center
01:01PM 39.5656 -102.6731 103° East 477 549 41,000  Level Denver Center
01:02PM 39.5364 -102.5053 103° East 478 550 41,000  Level Denver Center
01:03PM 39.5003 -102.3108 103° East 479 551 41,000  Level Denver Center
01:04PM 39.4714 -102.1517 103° East 477 549 41,000  Level Denver Center
01:05PM 39.4369 -101.9650 103° East 478 550 41,000  Level Denver Center
01:06PM 39.4086 -101.8075 103° East 473 544 41,000  Level Denver Center
01:07PM 39.3808 -101.6208 101° East 474 545 41,000  Level Denver Center
01:08PM 39.3681 -101.4597 96° East 473 544 41,000  Level Denver Center
01:09PM 39.3522 -101.2703 96° East 475 547 41,000  Level Denver Center
01:10PM 39.3378 -101.1089 97° East 474 545 41,000  Level Denver Center
01:11PM 39.3214 -100.9197 96° East 476 548 41,000  Level Denver Center
01:12PM 39.3075 -100.7597 96° East 472 543 41,000  Level Denver Center
01:13PM 39.2903 -100.5728 97° East 471 542 41,000  Level Denver Center
01:14PM 39.2761 -100.4142 97° East 468 539 41,000  Level Denver Center
01:15PM 39.2603 -100.2278 96° East 469 540 41,000  Level Denver Center
01:16PM 39.2625 -100.0689 89° East 464 534 41,000  Level Denver Center
01:17PM 39.2678 -99.8825 88° East 465 535 41,000  Level Denver Center
01:18PM 39.2708 -99.7244 89° East 464 534 41,000  Level Denver Center
01:19PM 39.2761 -99.5381 88° East 465 535 41,000  Level Denver Center
01:20PM 39.2789 -99.4042 88° East 467 537 41,000  Level Denver Center
01:21PM 39.2833 -99.1922 88° East 465 535 41,000  Level Denver Center
01:23PM 39.2864 -99.0325 89° East 466 536 41,000  Level Denver Center
01:24PM 39.2897 -98.8461 89° East 463 533 41,000  Level Denver Center
01:25PM 39.2925 -98.6539 89° East 457 526 41,000  Level Kansas City Center
01:26PM 39.2953 -98.4803 89° East 470 541 41,000  Level Kansas City Center
01:27PM 39.2969 -98.3153 89° East 462 532 41,000  Level Kansas City Center
01:28PM 39.2983 -98.1506 89° East 455 524 41,000  Level Kansas City Center
01:29PM 39.3008 -97.9661 89° East 458 527 41,000  Level Kansas City Center
01:30PM 39.3028 -97.7867 89° East 467 537 41,000  Level Kansas City Center
01:31PM 39.3039 -97.6208 89° East 464 534 41,000  Level Kansas City Center
01:32PM 39.3053 -97.4636 89° East 457 526 41,000  Level Kansas City Center
01:33PM 39.3061 -97.2800 90° East 458 527 41,000  Level Kansas City Center
01:34PM 39.3061 -97.1217 90° East 460 529 41,000  Level Kansas City Center
01:35PM 39.3067 -96.9383 90° East 459 528 41,000  Level Kansas City Center
01:36PM 39.3069 -96.7811 90° East 458 527 41,000  Level Kansas City Center
01:37PM 39.3061 -96.5975 90° East 458 527 41,000  Level Kansas City Center
01:38PM 39.3064 -96.4375 90° East 455 524 41,000  Level Kansas City Center
01:39PM 39.3058 -96.2733 90° East 456 525 41,000  Level Kansas City Center
01:40PM 39.3025 -96.1025 91° East 456 525 41,000  Level Kansas City Center
01:41PM 39.3017 -95.9472 90° East 450 518 41,000  Level Kansas City Center
01:42PM 39.3006 -95.7667 90° East 450 518 41,000  Level Kansas City Center
01:43PM 39.2994 -95.6125 90° East 447 514 41,000  Level Kansas City Center
01:44PM 39.2967 -95.4217 91° East 449 517 41,000  Level Kansas City Center
01:46PM 39.2925 -95.2597 92° East 453 521 41,000  Level Kansas City Center
01:47PM 39.2914 -95.1128 91° East 453 521 41,000  Level Kansas City Center
01:48PM 39.2886 -94.9325 91° East 445 512 41,000  Level Kansas City Center
01:49PM 39.2861 -94.7747 91° East 460 529 41,000  Level Kansas City Center
01:50PM 39.3047 -94.5972 82° East 453 521 41,000  Level Kansas City Center
01:51PM 39.3244 -94.4436 81° East 446 513 41,000  Level Kansas City Center
01:52PM 39.3475 -94.2661 80° East 448 516 41,000  Level Kansas City Center
01:53PM 39.3667 -94.1133 81° East 449 517 41,000  Level Kansas City Center
01:54PM 39.3892 -93.9342 81° East 451 519 41,000  Level Kansas City Center
01:55PM 39.4086 -93.7808 81° East 452 520 41,000  Level Kansas City Center
01:56PM 39.4269 -93.6294 81° East 454 522 41,000  Level Kansas City Center
01:57PM 39.4514 -93.4383 81° East 454 522 41,000  Level Kansas City Center
01:58PM 39.4686 -93.2778 82° East 456 525 41,000  Level Kansas City Center
01:59PM 39.4894 -93.1181 80° East 457 526 41,000  Level Kansas City Center
02:00PM 39.5075 -92.9539 82° East 463 533 41,000  Level Kansas City Center
02:01PM 39.5267 -92.7906 81° East 464 534 41,000  Level Kansas City Center
02:02PM 39.5481 -92.5958 82° East 462 532 41,000  Level Kansas City Center
02:03PM 39.5658 -92.4314 82° East 466 536 41,000  Level Kansas City Center
02:04PM 39.5839 -92.2678 82° East 465 535 41,000  Level Kansas City Center
02:05PM 39.6019 -92.1028 82° East 467 537 41,000  Level Kansas City Center
02:06PM 39.6239 -91.9003 82° East 474 545 41,000  Level Kansas City Center
02:07PM 39.6422 -91.7300 82° East 478 550 41,000  Level Kansas City Center
02:08PM 39.6600 -91.5617 82° East 479 551 41,000  Level Kansas City Center
02:09PM 39.6772 -91.3911 82° East 480 552 41,000  Level Kansas City Center
02:10PM 39.6956 -91.2178 82° East 478 550 41,000  Level Kansas City Center
02:11PM 39.7156 -91.0106 83° East 480 552 41,000  Level Kansas City Center
02:12PM 39.7331 -90.8389 82° East 480 552 41,000  Level Kansas City Center
02:13PM 39.7503 -90.6650 83° East 483 556 41,000  Level Kansas City Center
02:15PM 39.7669 -90.4828 83° East 483 556 41,000  Level Kansas City Center
02:16PM 39.7833 -90.3103 83° East 483 556 41,000  Level Kansas City Center
02:17PM 39.7983 -90.1356 84° East 487 560 41,000  Level Kansas City Center
02:18PM 39.8136 -89.9603 83° East 489 563 41,000  Level Kansas City Center
02:19PM 39.8286 -89.7872 84° East 487 560 41,000  Level Kansas City Center
02:20PM 39.8406 -89.5783 86° East 484 557 41,000  Level Kansas City Center
02:21PM 39.8408 -89.4039 90° East 485 558 41,000  Level Kansas City Center
02:22PM 39.8414 -89.2286 90° East 486 559 41,000  Level Kansas City Center
02:23PM 39.8411 -89.0544 90° East 485 558 41,000  Level Kansas City Center
02:24PM 39.8414 -88.8797 90° East 485 558 41,000  Level Kansas City Center
02:25PM 39.8414 -88.6706 90° East 484 557 41,000  Level Kansas City Center
02:26PM 39.8417 -88.4947 90° East 485 558 41,000  Level Kansas City Center
02:27PM 39.8406 -88.3183 90° East 487 560 41,000  Level Kansas City Center
02:28PM 39.8408 -88.1406 90° East 486 559 41,000  Level Kansas City Center
02:29PM 39.8389 -87.9644 91° East 484 557 41,000  Level Kansas City Center
02:30PM 39.8381 -87.7847 90° East 491 565 41,000  Level Kansas City Center
02:31PM 39.8361 -87.6072 91° East 490 564 41,000  Level Kansas City Center
02:32PM 39.8314 -87.3464 91° East 487 560 41,000  Level Indianapolis Center
02:33PM 39.8292 -87.1703 91° East 487 560 41,000  Level Indianapolis Center
02:35PM 39.8269 -86.9942 91° East 489 563 41,000  Level Indianapolis Center
02:36PM 39.8242 -86.7819 91° East 491 565 41,000  Level Indianapolis Center
02:37PM 39.8228 -86.6064 91° East 487 560 41,000  Level Indianapolis Center
02:38PM 39.8222 -86.4300 90° East 486 559 41,000  Level Indianapolis Center
02:39PM 39.8386 -86.2642 83° East 492 566 41,000  Level Indianapolis Center
02:40PM 39.8806 -86.0719 74° East 493 567 41,000  Level Indianapolis Center
02:41PM 39.9161 -85.9014 75° East 489 563 41,000  Level Indianapolis Center
02:42PM 39.9511 -85.7339 75° East 483 556 41,000  Level Indianapolis Center
02:43PM 39.9983 -85.5708 69° East 481 554 41,000  Level Indianapolis Center
02:44PM 40.0578 -85.4147 64° Northeast 483 556 41,000  Level Indianapolis Center
02:45PM 40.1289 -85.2281 63° Northeast 480 552 41,000  Level Indianapolis Center
02:46PM 40.1869 -85.0722 64° Northeast 477 549 41,000  Level Indianapolis Center
02:47PM 40.2444 -84.9164 64° Northeast 478 550 41,000  Level Indianapolis Center
02:48PM 40.3019 -84.7667 63° Northeast 481 554 41,000  Level Indianapolis Center
02:49PM 40.3700 -84.5800 64° Northeast 484 557 41,000  Level Indianapolis Center
02:50PM 40.4275 -84.4208 65° Northeast 482 555 41,000  Level Indianapolis Center
02:51PM 40.4861 -84.2608 64° Northeast 481 554 41,000  Level Indianapolis Center
02:52PM 40.5442 -84.1003 65° Northeast 482 555 41,000  Level Indianapolis Center
02:53PM 40.6019 -83.9386 65° Northeast 484 557 41,000  Level Indianapolis Center
02:54PM 40.6583 -83.7786 65° Northeast 480 552 41,000  Level Indianapolis Center
02:55PM 40.7153 -83.6192 65° Northeast 477 549 41,000  Level Indianapolis Center
02:56PM 40.7733 -83.4572 65° Northeast 482 555 41,000  Level Indianapolis Center
02:57PM 40.8378 -83.2731 65° Northeast 482 555 41,000  Level Indianapolis Center
02:58PM 40.8947 -83.1111 65° Northeast 484 557 41,000  Level Indianapolis Center
02:59PM 40.9228 -83.0261 66° East 471 542 41,000  Level Cleveland Center
03:00PM 40.9781 -82.8686 65° Northeast 476 548 41,000  Level Cleveland Center
03:01PM 41.0333 -82.7056 66° East 476 548 41,000  Level Cleveland Center
03:02PM 41.0928 -82.5392 65° Northeast 481 554 41,000  Level Cleveland Center
03:03PM 41.1453 -82.3781 67° East 481 554 41,000  Level Cleveland Center
03:04PM 41.2064 -82.2006 65° Northeast 476 548 41,000  Level Cleveland Center
03:05PM 41.2650 -82.0333 65° Northeast 485 558 41,000  Level Cleveland Center
03:06PM 41.3189 -81.8686 66° East 485 558 41,000  Level Cleveland Center
03:07PM 41.3833 -81.7122 61° Northeast 485 558 41,000  Level Cleveland Center
03:08PM 41.4800 -81.6058 39° Northeast 484 557 41,000  Level Cleveland Center
03:09PM 41.5728 -81.4825 45° Northeast 479 551 41,000  Level Cleveland Center
03:10PM 41.6678 -81.3475 47° Northeast 479 551 41,000  Level Cleveland Center
03:11PM 41.7519 -81.2039 52° Northeast 484 557 41,000  Level Cleveland Center
03:12PM 41.8256 -81.0542 57° Northeast 484 557 41,000  Level Cleveland Center
03:13PM 41.9053 -80.8983 55° Northeast 489 563 41,000  Level Cleveland Center
03:14PM 41.9744 -80.7228 62° Northeast 489 563 41,000  Level Cleveland Center
03:15PM 42.0350 -80.5608 63° Northeast 475 547 41,000  Level Cleveland Center
03:16PM 42.0975 -80.3928 63° Northeast 481 554 41,000  Level Cleveland Center
03:17PM 42.1553 -80.2331 64° Northeast 481 554 41,000  Level Cleveland Center
03:18PM 42.2006 -80.0592 71° East 481 554 41,000  Level Cleveland Center
03:19PM 42.2394 -79.9072 71° East 481 554 41,000  Level Cleveland Center
03:20PM 42.2819 -79.7328 72° East 481 554 41,000  Level Cleveland Center
03:21PM 42.3244 -79.5581 72° East 486 559 41,000  Level Cleveland Center
03:22PM 42.3686 -79.3803 71° East 486 559 41,000  Level Cleveland Center
03:23PM 42.3914 -79.2000 80° East 481 554 41,000  Level Cleveland Center
03:24PM 42.4058 -79.0169 84° East 481 554 41,000  Level Cleveland Center
03:25PM 42.4242 -78.8336 82° East 486 559 41,000  Level Cleveland Center
03:26PM 42.4400 -78.6531 83° East 486 559 41,000  Level Cleveland Center
03:27PM 42.4553 -78.4669 84° East 486 559 41,000  Level Cleveland Center
03:28PM 42.4686 -78.2864 84° East 486 559 41,000  Level Cleveland Center
03:29PM 42.4836 -78.1056 84° East 486 559 41,000  Level Cleveland Center
03:30PM 42.4961 -77.9192 85° East 486 559 41,000  Level Cleveland Center
03:31PM 42.5142 -77.7183 83° East 486 559 41,000  Level Cleveland Center
03:32PM 42.5264 -77.5375 85° East 486 559 41,000  Level Cleveland Center
03:34PM 42.5547 -77.1536 84° East 516 594 41,000  Level Boston Center
03:35PM 42.5686 -76.9714 84° East 496 571 41,000  Level Boston Center
03:36PM 42.5819 -76.7889 84° East 496 571 41,000  Level Boston Center
03:37PM 42.5950 -76.6036 84° East 496 571 41,000  Level Boston Center
03:38PM 42.6081 -76.4153 85° East 496 571 41,000  Level Boston Center
03:39PM 42.6206 -76.2328 85° East 496 571 41,000  Level Boston Center
03:40PM 42.6275 -76.0836 86° East 496 571 41,000 -660 Level Boston Center
03:41PM 42.6406 -75.8611 85° East 496 571 39,700 -1,500 Descending Boston Center
03:42PM 42.6525 -75.6756 85° East 496 571 38,000 -1,800 Descending Boston Center
03:43PM 42.6619 -75.4839 86° East 502 578 36,200 -1,800 Descending Boston Center
03:44PM 42.6750 -75.2953 85° East 502 578 34,400 -1,800 Descending Boston Center
03:45PM 42.6839 -75.1008 86° East 497 572 32,600 -1,680 Descending Boston Center
03:46PM 42.6944 -74.9119 86° East 497 572 30,800 -1,920 Descending Boston Center
03:47PM 42.7200 -74.6839 81° East 502 578 28,500 -2,400 Descending Boston Center
03:48PM 42.7594 -74.4678 76° East 519 597 26,100 -2,220 Descending Boston Center
03:49PM 42.7942 -74.2708 76° East 525 604 24,100 -2,040 Descending Boston Center
03:50PM 42.8264 -74.0736 77° East 525 604 22,100 -2,040 Descending Boston Center
03:51PM 42.8561 -73.8817 78° East 525 604 20,100 -1,560 Descending Boston Center
03:52PM 42.8917 -73.6897 76° East 525 604 19,000 -600 Descending Boston Center
03:53PM 42.9206 -73.5175 77° East 517 595 19,000  Level Boston Center
03:54PM 42.9469 -73.3478 78° East 511 588 19,000  Level Boston Center
03:55PM 42.9797 -73.1383 78° East 506 582 19,000  Level Boston Center
03:56PM 43.0142 -72.9511 76° East 506 582 19,000  Level Boston Center
03:57PM 43.0419 -72.7583 79° East 506 582 19,000 -300 Level Boston Center
03:58PM 43.0736 -72.5681 77° East 506 582 18,500 -1,380 Descending Boston Center
03:59PM 43.1006 -72.3833 79° East 506 582 16,300 -2,220 Descending Boston Center
04:00PM 43.1256 -72.2211 78° East 501 577 14,100 -2,520 Descending Boston Center
04:01PM 43.1603 -72.0075 77° East 483 556 11,300 -1,680 Descending Boston Center
04:02PM 43.1867 -71.8706 75° East 436 502 10,800 -1,080 Descending Boston Center
04:03PM 43.2131 -71.7281 76° East 362 417 9,200 -1,680 Descending Boston Center
04:04PM 43.2311 -71.6194 77° East 329 379 7,500 -1,800 Descending Boston Center
04:05PM 43.2572 -71.4881 75° East 319 367 5,700 -1,260 Descending Boston Center
04:06PM 43.2731 -71.3908 77° East 299 344 5,000 -360 Descending Boston Center
04:07PM 43.2908 -71.2878 77° East 275 316 5,000 -480 Level Boston Center
04:08PM 43.3106 -71.1847 75° East 260 299 4,100 -840 Descending Boston Center
04:09PM 43.3261 -71.0958 76° East 260 299 3,400 -600 Descending Boston Center
04:10PM 43.3436 -70.9956 76° East 255 293 3,000 -240 Descending Boston Center
04:11PM 43.3553 -70.9181 78° East 237 273 3,000  Level Boston Center
04:12PM 43.3706 -70.8319 76° East 237 273 3,000 7,980 Level Boston Center
04:13PM 43.3861 -70.7458 76° East 237 273 19,000 7,980 Climbing Boston Center
04:14PM 43.3994 -70.6597 78° East 237 273 19,000  Level Boston Center